createdAt,value
2019-03-22T00:00:44.638Z,0.00
2019-03-22T00:01:44.596Z,0.00
2019-03-22T00:02:44.493Z,0.00
2019-03-22T00:03:44.437Z,0.00
2019-03-22T00:04:44.362Z,0.00
2019-03-22T00:05:44.290Z,0.00
2019-03-22T00:06:44.209Z,0.00
2019-03-22T00:07:44.126Z,0.00
2019-03-22T00:08:44.056Z,0.00
2019-03-22T00:09:43.981Z,0.00
2019-03-22T00:10:43.916Z,0.00
2019-03-22T00:11:43.846Z,0.00
2019-03-22T00:12:43.777Z,0.00
2019-03-22T00:13:43.689Z,0.00
2019-03-22T00:14:43.621Z,0.00
2019-03-22T00:15:43.559Z,0.00
2019-03-22T00:16:43.485Z,0.00
2019-03-22T00:17:43.414Z,0.00
2019-03-22T00:18:43.337Z,0.00
2019-03-22T00:19:43.254Z,0.00
2019-03-22T00:20:43.178Z,0.00
2019-03-22T00:21:43.108Z,0.00
2019-03-22T00:22:43.040Z,0.00
2019-03-22T00:23:42.969Z,0.00
2019-03-22T00:24:42.905Z,0.00
2019-03-22T00:25:42.829Z,0.00
2019-03-22T00:26:42.755Z,0.00
2019-03-22T00:27:42.672Z,0.00
2019-03-22T00:28:42.597Z,0.00
2019-03-22T00:29:42.537Z,0.00
2019-03-22T00:30:42.457Z,0.00
2019-03-22T00:31:42.379Z,0.00
2019-03-22T00:32:42.308Z,0.00
2019-03-22T00:33:42.235Z,0.00
2019-03-22T00:34:42.154Z,0.00
2019-03-22T00:35:42.097Z,0.00
2019-03-22T00:36:42.053Z,0.00
2019-03-22T00:37:41.951Z,0.00
2019-03-22T00:38:41.912Z,0.00
2019-03-22T00:39:41.794Z,0.00
2019-03-22T00:40:41.728Z,0.00
2019-03-22T00:41:41.646Z,0.00
2019-03-22T00:42:41.578Z,0.00
2019-03-22T00:43:41.517Z,0.00
2019-03-22T00:44:41.452Z,0.00
2019-03-22T00:45:41.351Z,0.00
2019-03-22T00:46:41.281Z,0.00
2019-03-22T00:47:41.215Z,0.00
2019-03-22T00:48:41.149Z,0.00
2019-03-22T00:49:41.075Z,0.00
2019-03-22T00:50:41.000Z,0.00
2019-03-22T00:51:40.912Z,0.00
2019-03-22T00:52:40.842Z,0.00
2019-03-22T00:53:40.781Z,0.00
2019-03-22T00:54:40.702Z,0.00
2019-03-22T00:55:40.620Z,0.00
2019-03-22T00:56:40.570Z,0.00
2019-03-22T00:57:40.476Z,0.00
2019-03-22T00:58:40.398Z,0.00
2019-03-22T00:59:40.338Z,0.00
2019-03-22T01:00:40.267Z,0.00
2019-03-22T01:01:40.182Z,0.00
2019-03-22T01:02:40.104Z,0.00
2019-03-22T01:03:40.042Z,0.00
2019-03-22T01:04:39.975Z,0.00
2019-03-22T01:05:39.936Z,0.00
2019-03-22T01:06:39.822Z,0.00
2019-03-22T01:07:39.758Z,0.00
2019-03-22T01:08:39.666Z,0.00
2019-03-22T01:09:39.590Z,0.00
2019-03-22T01:10:39.524Z,0.00
2019-03-22T01:11:39.591Z,0.00
2019-03-22T01:12:39.389Z,0.00
2019-03-22T01:13:39.311Z,0.00
2019-03-22T01:14:39.233Z,0.00
2019-03-22T01:15:39.150Z,0.00
2019-03-22T01:16:39.074Z,0.00
2019-03-22T01:17:39.017Z,0.00
2019-03-22T01:18:38.942Z,0.00
2019-03-22T01:19:38.859Z,0.00
2019-03-22T01:20:38.788Z,0.00
2019-03-22T01:21:38.706Z,0.00
2019-03-22T01:22:38.634Z,0.00
2019-03-22T01:23:38.571Z,0.00
2019-03-22T01:24:38.503Z,0.00
2019-03-22T01:25:38.414Z,0.00
2019-03-22T01:26:38.336Z,0.00
2019-03-22T01:27:40.753Z,0.00
2019-03-22T01:28:38.211Z,0.00
2019-03-22T01:29:38.147Z,0.00
2019-03-22T01:30:38.059Z,0.00
2019-03-22T01:31:37.972Z,0.00
2019-03-22T01:32:37.898Z,0.00
2019-03-22T01:33:37.837Z,0.00
2019-03-22T01:34:37.764Z,0.00
2019-03-22T01:35:37.672Z,0.00
2019-03-22T01:36:37.602Z,0.00
2019-03-22T01:37:37.528Z,0.00
2019-03-22T01:38:37.452Z,0.00
2019-03-22T01:39:37.393Z,0.00
2019-03-22T01:40:37.318Z,0.00
2019-03-22T01:41:37.246Z,0.00
2019-03-22T01:42:37.173Z,0.00
2019-03-22T01:43:37.082Z,0.00
2019-03-22T01:44:37.009Z,0.00
2019-03-22T01:45:36.940Z,0.00
2019-03-22T01:46:36.862Z,0.00
2019-03-22T01:47:36.801Z,0.00
2019-03-22T01:48:36.732Z,0.00
2019-03-22T01:49:36.640Z,0.00
2019-03-22T01:50:36.568Z,0.00
2019-03-22T01:51:36.505Z,0.00
2019-03-22T01:52:36.434Z,0.00
2019-03-22T01:53:36.355Z,0.00
2019-03-22T01:54:36.282Z,0.00
2019-03-22T01:55:36.201Z,0.00
2019-03-22T01:56:36.120Z,0.00
2019-03-22T01:57:36.067Z,0.00
2019-03-22T01:58:35.989Z,0.00
2019-03-22T01:59:35.904Z,0.00
2019-03-22T02:00:35.828Z,0.00
2019-03-22T02:01:35.751Z,0.00
2019-03-22T02:02:35.682Z,0.00
2019-03-22T02:03:35.616Z,0.00
2019-03-22T02:04:35.545Z,0.00
2019-03-22T02:05:35.455Z,0.00
2019-03-22T02:06:35.384Z,0.00
2019-03-22T02:07:35.321Z,0.00
2019-03-22T02:08:35.244Z,0.00
2019-03-22T02:09:35.179Z,0.00
2019-03-22T02:10:35.099Z,0.00
2019-03-22T02:11:35.016Z,0.00
2019-03-22T02:12:34.944Z,0.00
2019-03-22T02:13:34.864Z,0.00
2019-03-22T02:14:34.794Z,0.00
2019-03-22T02:15:34.731Z,0.00
2019-03-22T02:16:34.663Z,0.00
2019-03-22T02:17:34.585Z,0.00
2019-03-22T02:18:34.503Z,0.00
2019-03-22T02:19:34.422Z,0.00
2019-03-22T02:20:34.344Z,0.00
2019-03-22T02:21:34.288Z,0.00
2019-03-22T02:22:34.205Z,0.00
2019-03-22T02:23:34.122Z,0.00
2019-03-22T02:24:34.052Z,0.00
2019-03-22T02:25:33.972Z,0.00
2019-03-22T02:26:33.900Z,0.00
2019-03-22T02:27:33.840Z,0.00
2019-03-22T02:28:33.763Z,0.00
2019-03-22T02:29:33.691Z,0.00
2019-03-22T02:30:33.624Z,0.00
2019-03-22T02:31:33.533Z,0.00
2019-03-22T02:32:33.467Z,0.00
2019-03-22T02:33:33.382Z,0.00
2019-03-22T02:34:33.311Z,0.00
2019-03-22T02:35:33.249Z,0.00
2019-03-22T02:36:33.170Z,0.00
2019-03-22T02:37:33.093Z,0.00
2019-03-22T02:38:33.016Z,0.00
2019-03-22T02:39:33.048Z,0.00
2019-03-22T02:40:32.956Z,0.00
2019-03-22T02:41:32.808Z,0.00
2019-03-22T02:42:32.731Z,0.00
2019-03-22T02:43:32.646Z,0.00
2019-03-22T02:44:32.571Z,0.00
2019-03-22T02:45:32.527Z,0.00
2019-03-22T02:46:32.422Z,0.00
2019-03-22T02:47:32.379Z,0.00
2019-03-22T02:48:32.287Z,0.00
2019-03-22T02:49:32.220Z,0.00
2019-03-22T02:50:32.135Z,0.00
2019-03-22T02:51:32.049Z,0.00
2019-03-22T02:52:31.978Z,0.00
2019-03-22T02:53:31.914Z,0.00
2019-03-22T02:54:31.836Z,0.00
2019-03-22T02:55:31.752Z,0.00
2019-03-22T02:56:31.684Z,0.00
2019-03-22T02:57:31.606Z,0.00
2019-03-22T02:58:31.532Z,0.00
2019-03-22T02:59:31.464Z,0.00
2019-03-22T03:00:31.396Z,0.00
2019-03-22T03:01:31.309Z,0.00
2019-03-22T03:02:31.228Z,0.00
2019-03-22T03:03:31.170Z,0.00
2019-03-22T03:04:31.100Z,0.00
2019-03-22T03:05:31.023Z,0.00
2019-03-22T03:06:30.950Z,0.00
2019-03-22T03:07:30.856Z,0.00
2019-03-22T03:08:30.796Z,0.00
2019-03-22T03:09:30.723Z,0.00
2019-03-22T03:10:30.666Z,0.00
2019-03-22T03:11:30.563Z,0.00
2019-03-22T03:12:30.490Z,0.00
2019-03-22T03:13:30.413Z,0.00
2019-03-22T03:14:30.334Z,0.00
2019-03-22T03:15:30.276Z,0.00
2019-03-22T03:16:30.202Z,0.00
2019-03-22T03:17:30.131Z,0.00
2019-03-22T03:18:30.052Z,0.00
2019-03-22T03:19:29.968Z,0.00
2019-03-22T03:20:29.890Z,0.00
2019-03-22T03:21:29.814Z,0.00
2019-03-22T03:22:29.742Z,0.00
2019-03-22T03:23:29.678Z,0.00
2019-03-22T03:24:29.611Z,0.00
2019-03-22T03:25:29.522Z,0.00
2019-03-22T03:26:29.557Z,0.00
2019-03-22T03:27:29.386Z,0.00
2019-03-22T03:28:36.524Z,0.00
2019-03-22T03:29:29.228Z,0.00
2019-03-22T03:30:29.159Z,0.00
2019-03-22T03:31:29.070Z,0.00
2019-03-22T03:32:28.996Z,0.00
2019-03-22T03:33:28.922Z,0.00
2019-03-22T03:34:28.846Z,0.00
2019-03-22T03:35:28.783Z,0.00
2019-03-22T03:36:28.710Z,0.00
2019-03-22T03:37:28.649Z,0.00
2019-03-22T03:38:28.574Z,0.00
2019-03-22T03:39:28.473Z,0.00
2019-03-22T03:40:28.406Z,0.00
2019-03-22T03:41:28.332Z,0.00
2019-03-22T03:42:28.275Z,0.00
2019-03-22T03:43:28.174Z,0.00
2019-03-22T03:44:28.097Z,0.00
2019-03-22T03:45:28.028Z,0.00
2019-03-22T03:46:27.951Z,0.00
2019-03-22T03:47:27.890Z,0.00
2019-03-22T03:48:27.810Z,0.00
2019-03-22T03:49:27.740Z,0.00
2019-03-22T03:50:27.666Z,0.00
2019-03-22T03:51:27.576Z,0.00
2019-03-22T03:52:27.513Z,0.00
2019-03-22T03:53:27.424Z,0.00
2019-03-22T03:54:27.354Z,0.00
2019-03-22T03:55:27.293Z,0.00
2019-03-22T03:56:27.221Z,0.00
2019-03-22T03:57:27.125Z,0.00
2019-03-22T03:58:27.060Z,0.00
2019-03-22T03:59:26.987Z,0.00
2019-03-22T04:00:26.929Z,0.00
2019-03-22T04:01:26.843Z,0.00
2019-03-22T04:02:26.764Z,0.00
2019-03-22T04:03:26.682Z,0.00
2019-03-22T04:04:26.606Z,0.00
2019-03-22T04:05:26.552Z,0.00
2019-03-22T04:06:26.469Z,0.00
2019-03-22T04:07:26.388Z,0.00
2019-03-22T04:08:26.317Z,0.00
2019-03-22T04:09:26.233Z,0.00
2019-03-22T04:10:26.164Z,0.00
2019-03-22T04:11:26.096Z,0.00
2019-03-22T04:12:26.029Z,0.00
2019-03-22T04:13:25.980Z,0.00
2019-03-22T04:14:25.862Z,0.00
2019-03-22T04:15:25.793Z,0.00
2019-03-22T04:16:25.747Z,0.00
2019-03-22T04:17:25.644Z,0.00
2019-03-22T04:18:25.572Z,0.00
2019-03-22T04:19:25.485Z,0.00
2019-03-22T04:20:25.406Z,0.00
2019-03-22T04:21:25.336Z,0.00
2019-03-22T04:22:25.260Z,0.00
2019-03-22T04:23:25.200Z,0.00
2019-03-22T04:24:25.125Z,0.00
2019-03-22T04:25:25.070Z,0.00
2019-03-22T04:26:24.978Z,0.00
2019-03-22T04:27:24.888Z,0.00
2019-03-22T04:28:24.821Z,0.00
2019-03-22T04:29:24.759Z,0.00
2019-03-22T04:30:24.676Z,0.00
2019-03-22T04:31:24.589Z,0.00
2019-03-22T04:32:24.512Z,0.00
2019-03-22T04:33:24.446Z,0.00
2019-03-22T04:34:24.364Z,0.00
2019-03-22T04:35:24.311Z,0.00
2019-03-22T04:36:24.224Z,0.00
2019-03-22T04:37:24.156Z,0.00
2019-03-22T04:38:24.074Z,0.00
2019-03-22T04:39:23.995Z,0.00
2019-03-22T04:40:23.915Z,0.00
2019-03-22T04:41:23.843Z,0.00
2019-03-22T04:42:23.759Z,0.00
2019-03-22T04:43:23.703Z,0.00
2019-03-22T04:44:23.621Z,0.00
2019-03-22T04:45:23.539Z,0.00
2019-03-22T04:46:23.463Z,0.00
2019-03-22T04:47:23.404Z,0.00
2019-03-22T04:48:23.321Z,0.00
2019-03-22T04:49:23.250Z,0.00
2019-03-22T04:50:23.171Z,0.00
2019-03-22T04:51:23.095Z,0.00
2019-03-22T04:52:23.013Z,0.00
2019-03-22T04:53:22.937Z,0.00
2019-03-22T04:54:22.864Z,0.00
2019-03-22T04:55:22.798Z,0.00
2019-03-22T04:56:22.725Z,0.00
2019-03-22T04:57:22.648Z,0.00
2019-03-22T04:58:22.573Z,0.00
2019-03-22T04:59:22.490Z,0.00
2019-03-22T05:00:22.409Z,0.00
2019-03-22T05:01:22.345Z,0.00
2019-03-22T05:02:22.315Z,0.00
2019-03-22T05:03:22.183Z,0.00
2019-03-22T05:04:22.109Z,0.00
2019-03-22T05:05:22.033Z,0.00
2019-03-22T05:06:21.965Z,0.00
2019-03-22T05:07:21.896Z,0.00
2019-03-22T05:08:21.826Z,0.00
2019-03-22T05:09:21.738Z,0.00
2019-03-22T05:10:21.659Z,0.00
2019-03-22T05:11:21.596Z,0.00
2019-03-22T05:12:21.528Z,0.00
2019-03-22T05:13:21.450Z,0.00
2019-03-22T05:14:21.380Z,0.00
2019-03-22T05:15:21.285Z,0.00
2019-03-22T05:16:21.213Z,0.00
2019-03-22T05:17:21.150Z,0.00
2019-03-22T05:18:21.071Z,0.00
2019-03-22T05:19:20.981Z,0.00
2019-03-22T05:20:20.912Z,0.00
2019-03-22T05:21:20.836Z,0.00
2019-03-22T05:22:20.765Z,0.00
2019-03-22T05:23:20.696Z,0.00
2019-03-22T05:24:20.619Z,0.00
2019-03-22T05:25:20.550Z,0.00
2019-03-22T05:26:20.473Z,0.00
2019-03-22T05:27:20.387Z,0.00
2019-03-22T05:28:20.311Z,0.00
2019-03-22T05:29:30.112Z,0.00
2019-03-22T05:30:20.157Z,0.00
2019-03-22T05:31:20.101Z,0.00
2019-03-22T05:32:20.017Z,0.00
2019-03-22T05:33:19.929Z,0.00
2019-03-22T05:34:19.877Z,0.00
2019-03-22T05:35:19.798Z,0.00
2019-03-22T05:36:19.719Z,0.00
2019-03-22T05:37:19.659Z,4.00
2019-03-22T05:38:19.585Z,4.00
2019-03-22T05:39:19.479Z,4.00
2019-03-22T05:40:19.405Z,4.00
2019-03-22T05:41:19.342Z,0.00
2019-03-22T05:42:19.265Z,4.00
2019-03-22T05:43:19.180Z,4.00
2019-03-22T05:44:19.104Z,4.00
2019-03-22T05:45:19.029Z,4.00
2019-03-22T05:46:18.955Z,4.00
2019-03-22T05:47:18.902Z,8.00
2019-03-22T05:48:18.818Z,8.00
2019-03-22T05:49:18.723Z,8.00
2019-03-22T05:50:18.655Z,12.00
2019-03-22T05:51:18.589Z,8.00
2019-03-22T05:52:18.525Z,12.00
2019-03-22T05:53:18.437Z,16.00
2019-03-22T05:54:18.363Z,20.00
2019-03-22T05:55:18.280Z,24.00
2019-03-22T05:56:18.199Z,24.00
2019-03-22T05:57:18.135Z,28.00
2019-03-22T05:58:18.045Z,32.00
2019-03-22T05:59:17.989Z,36.00
2019-03-22T06:00:17.913Z,44.00
2019-03-22T06:01:17.837Z,52.00
2019-03-22T06:02:17.755Z,56.00
2019-03-22T06:03:17.669Z,64.00
2019-03-22T06:04:17.597Z,72.00
2019-03-22T06:05:17.534Z,80.00
2019-03-22T06:06:17.459Z,88.00
2019-03-22T06:07:17.369Z,96.00
2019-03-22T06:08:17.290Z,108.00
2019-03-22T06:09:17.218Z,120.00
2019-03-22T06:10:17.143Z,132.00
2019-03-22T06:11:17.095Z,140.00
2019-03-22T06:12:17.003Z,156.00
2019-03-22T06:13:16.914Z,168.00
2019-03-22T06:14:16.841Z,180.00
2019-03-22T06:15:16.772Z,196.00
2019-03-22T06:16:16.701Z,212.00
2019-03-22T06:17:16.629Z,228.00
2019-03-22T06:18:16.557Z,244.00
2019-03-22T06:19:16.471Z,264.00
2019-03-22T06:20:16.393Z,284.00
2019-03-22T06:21:16.332Z,304.00
2019-03-22T06:22:16.252Z,328.00
2019-03-22T06:23:16.161Z,352.00
2019-03-22T06:24:16.083Z,376.00
2019-03-22T06:25:16.013Z,408.00
2019-03-22T06:26:15.939Z,436.00
2019-03-22T06:27:15.879Z,468.00
2019-03-22T06:28:15.794Z,500.00
2019-03-22T06:29:15.733Z,528.00
2019-03-22T06:30:15.644Z,568.00
2019-03-22T06:31:15.572Z,608.00
2019-03-22T06:32:15.488Z,644.00
2019-03-22T06:33:15.405Z,688.00
2019-03-22T06:34:15.327Z,728.00
2019-03-22T06:35:15.266Z,772.00
2019-03-22T06:36:15.201Z,820.00
2019-03-22T06:37:15.103Z,864.00
2019-03-22T06:38:15.037Z,908.00
2019-03-22T06:39:14.975Z,956.00
2019-03-22T06:40:14.893Z,1004.00
2019-03-22T06:41:14.816Z,1048.00
2019-03-22T06:42:14.740Z,1104.00
2019-03-22T06:43:14.657Z,1152.00
2019-03-22T06:44:14.583Z,1200.00
2019-03-22T06:45:14.504Z,1252.00
2019-03-22T06:46:14.447Z,1296.00
2019-03-22T06:47:14.363Z,1352.00
2019-03-22T06:48:14.288Z,1404.00
2019-03-22T06:49:14.212Z,1452.00
2019-03-22T06:50:14.142Z,1504.00
2019-03-22T06:51:14.053Z,1548.00
2019-03-22T06:52:13.977Z,1604.00
2019-03-22T06:53:13.910Z,1652.00
2019-03-22T06:54:13.835Z,1704.00
2019-03-22T06:55:13.752Z,1752.00
2019-03-22T06:56:13.677Z,1804.00
2019-03-22T06:57:13.606Z,1852.00
2019-03-22T06:58:13.525Z,1900.00
2019-03-22T06:59:13.468Z,1952.00
2019-03-22T07:00:13.398Z,2008.00
2019-03-22T07:01:13.309Z,2064.00
2019-03-22T07:02:13.244Z,2120.00
2019-03-22T07:03:13.153Z,2168.00
2019-03-22T07:04:13.075Z,2220.00
2019-03-22T07:05:13.782Z,2272.00
2019-03-22T07:06:12.923Z,2328.00
2019-03-22T07:07:12.870Z,2376.00
2019-03-22T07:08:12.788Z,2424.00
2019-03-22T07:09:12.709Z,2468.00
2019-03-22T07:10:12.633Z,2520.00
2019-03-22T07:11:12.572Z,2572.00
2019-03-22T07:12:12.492Z,2624.00
2019-03-22T07:13:12.416Z,2668.00
2019-03-22T07:14:12.345Z,2700.00
2019-03-22T07:15:12.253Z,2736.00
2019-03-22T07:16:12.199Z,2776.00
2019-03-22T07:17:12.121Z,2816.00
2019-03-22T07:18:12.037Z,2864.00
2019-03-22T07:19:11.960Z,2916.00
2019-03-22T07:20:11.889Z,2972.00
2019-03-22T07:21:11.807Z,3008.00
2019-03-22T07:22:11.751Z,3052.00
2019-03-22T07:23:11.670Z,3096.00
2019-03-22T07:24:11.587Z,3140.00
2019-03-22T07:25:11.519Z,3168.00
2019-03-22T07:26:11.450Z,3204.00
2019-03-22T07:27:11.380Z,3256.00
2019-03-22T07:28:11.308Z,3284.00
2019-03-22T07:29:11.231Z,3328.00
2019-03-22T07:30:18.536Z,3352.00
2019-03-22T07:31:11.071Z,3396.00
2019-03-22T07:32:10.998Z,3436.00
2019-03-22T07:33:10.921Z,3456.00
2019-03-22T07:34:10.859Z,3500.00
2019-03-22T07:35:10.790Z,3540.00
2019-03-22T07:36:10.715Z,3568.00
2019-03-22T07:37:10.635Z,3608.00
2019-03-22T07:38:10.552Z,3632.00
2019-03-22T07:39:10.475Z,3664.00
2019-03-22T07:40:10.416Z,3696.00
2019-03-22T07:41:10.342Z,3732.00
2019-03-22T07:42:10.257Z,3756.00
2019-03-22T07:43:10.187Z,3784.00
2019-03-22T07:44:10.116Z,3824.00
2019-03-22T07:45:10.037Z,3836.00
2019-03-22T07:46:09.977Z,3852.00
2019-03-22T07:47:09.904Z,3880.00
2019-03-22T07:48:09.828Z,3900.00
2019-03-22T07:49:09.760Z,3924.00
2019-03-22T07:50:09.676Z,3952.00
2019-03-22T07:51:09.599Z,3968.00
2019-03-22T07:52:09.526Z,4008.00
2019-03-22T07:53:09.853Z,4024.00
2019-03-22T07:54:09.391Z,4048.00
2019-03-22T07:55:09.320Z,4064.00
2019-03-22T07:56:09.230Z,4088.00
2019-03-22T07:57:09.165Z,4104.00
2019-03-22T07:58:09.103Z,4128.00
2019-03-22T07:59:09.978Z,4152.00
2019-03-22T08:00:08.956Z,4176.00
2019-03-22T08:01:08.884Z,4192.00
2019-03-22T08:02:08.795Z,4220.00
2019-03-22T08:03:08.731Z,4232.00
2019-03-22T08:04:08.649Z,4248.00
2019-03-22T08:05:08.577Z,4264.00
2019-03-22T08:06:08.519Z,4280.00
2019-03-22T08:07:08.457Z,4300.00
2019-03-22T08:08:08.378Z,4328.00
2019-03-22T08:09:08.328Z,4344.00
2019-03-22T08:10:08.221Z,4356.00
2019-03-22T08:11:08.145Z,4376.00
2019-03-22T08:12:08.084Z,4400.00
2019-03-22T08:13:08.012Z,4428.00
2019-03-22T08:14:07.940Z,4440.00
2019-03-22T08:15:08.532Z,4440.00
2019-03-22T08:16:07.822Z,4456.00
2019-03-22T08:17:07.711Z,4464.00
2019-03-22T08:18:07.675Z,4460.00
2019-03-22T08:19:07.585Z,4464.00
2019-03-22T08:20:07.556Z,4464.00
2019-03-22T08:21:07.439Z,4460.00
2019-03-22T08:22:07.395Z,4456.00
2019-03-22T08:23:07.295Z,4472.00
2019-03-22T08:24:07.229Z,4496.00
2019-03-22T08:25:07.151Z,4504.00
2019-03-22T08:26:07.066Z,4516.00
2019-03-22T08:27:07.002Z,4520.00
2019-03-22T08:28:06.952Z,4528.00
2019-03-22T08:29:06.860Z,4544.00
2019-03-22T08:30:06.778Z,4552.00
2019-03-22T08:31:06.729Z,4560.00
2019-03-22T08:32:06.643Z,4572.00
2019-03-22T08:33:06.565Z,4580.00
2019-03-22T08:34:06.505Z,4588.00
2019-03-22T08:35:06.432Z,4592.00
2019-03-22T08:36:06.380Z,4612.00
2019-03-22T08:37:06.314Z,4612.00
2019-03-22T08:38:06.203Z,4624.00
2019-03-22T08:39:06.167Z,4632.00
2019-03-22T08:40:06.103Z,4636.00
2019-03-22T08:41:05.993Z,4632.00
2019-03-22T08:42:05.947Z,4648.00
2019-03-22T08:43:05.891Z,4656.00
2019-03-22T08:44:05.792Z,4672.00
2019-03-22T08:45:05.733Z,4676.00
2019-03-22T08:46:05.658Z,4684.00
2019-03-22T08:47:05.580Z,4692.00
2019-03-22T08:48:05.508Z,4704.00
2019-03-22T08:49:05.555Z,4704.00
2019-03-22T08:50:05.349Z,4712.00
2019-03-22T08:51:05.283Z,4712.00
2019-03-22T08:52:05.206Z,4716.00
2019-03-22T08:53:05.151Z,4712.00
2019-03-22T08:54:05.126Z,4716.00
2019-03-22T08:55:05.032Z,4716.00
2019-03-22T08:56:06.678Z,4716.00
2019-03-22T08:57:04.868Z,4720.00
2019-03-22T08:58:04.783Z,4724.00
2019-03-22T08:59:04.731Z,4728.00
2019-03-22T09:00:04.676Z,4732.00
2019-03-22T09:01:04.607Z,4732.00
2019-03-22T09:02:04.498Z,4744.00
2019-03-22T09:03:04.444Z,4744.00
2019-03-22T09:04:04.399Z,4740.00
2019-03-22T09:05:04.290Z,4732.00
2019-03-22T09:06:04.223Z,4748.00
2019-03-22T09:07:04.183Z,4748.00
2019-03-22T09:08:04.112Z,4756.00
2019-03-22T09:09:04.015Z,4740.00
2019-03-22T09:10:03.957Z,4732.00
2019-03-22T09:11:03.912Z,4744.00
2019-03-22T09:12:03.836Z,4736.00
2019-03-22T09:13:03.738Z,4748.00
2019-03-22T09:14:03.666Z,4764.00
2019-03-22T09:15:03.615Z,4752.00
2019-03-22T09:16:03.530Z,4772.00
2019-03-22T09:17:03.570Z,4760.00
2019-03-22T09:18:03.382Z,4748.00
2019-03-22T09:19:03.312Z,4752.00
2019-03-22T09:20:03.274Z,4736.00
2019-03-22T09:21:03.215Z,4748.00
2019-03-22T09:22:03.096Z,4732.00
2019-03-22T09:23:03.024Z,4756.00
2019-03-22T09:24:02.966Z,4764.00
2019-03-22T09:25:02.879Z,4760.00
2019-03-22T09:26:02.855Z,4752.00
2019-03-22T09:27:02.764Z,4756.00
2019-03-22T09:28:02.668Z,4752.00
2019-03-22T09:29:02.617Z,4752.00
2019-03-22T09:30:02.543Z,4760.00
2019-03-22T09:31:10.091Z,4752.00
2019-03-22T09:32:02.390Z,4744.00
2019-03-22T09:33:02.369Z,4732.00
2019-03-22T09:34:02.331Z,4720.00
2019-03-22T09:35:02.193Z,4724.00
2019-03-22T09:36:02.120Z,4732.00
2019-03-22T09:37:02.053Z,4724.00
2019-03-22T09:38:12.384Z,4720.00
2019-03-22T09:39:01.911Z,4716.00
2019-03-22T09:40:01.888Z,4728.00
2019-03-22T09:41:01.771Z,4724.00
2019-03-22T09:42:01.722Z,4740.00
2019-03-22T09:43:01.636Z,4728.00
2019-03-22T09:44:01.557Z,4720.00
2019-03-22T09:45:01.492Z,4720.00
2019-03-22T09:46:01.450Z,4728.00
2019-03-22T09:47:01.467Z,4712.00
2019-03-22T09:48:01.296Z,4728.00
2019-03-22T09:49:01.216Z,4708.00
2019-03-22T09:50:01.133Z,4712.00
2019-03-22T09:51:01.091Z,4716.00
2019-03-22T09:52:01.025Z,4700.00
2019-03-22T09:53:00.923Z,4700.00
2019-03-22T09:54:00.881Z,4696.00
2019-03-22T09:55:12.809Z,4688.00
2019-03-22T09:56:00.716Z,4680.00
2019-03-22T09:57:00.765Z,4668.00
2019-03-22T09:58:00.614Z,4656.00
2019-03-22T09:59:00.532Z,4648.00
2019-03-22T10:00:00.458Z,4640.00
2019-03-22T10:01:00.428Z,4636.00
2019-03-22T10:02:00.303Z,4632.00
2019-03-22T10:03:00.239Z,4612.00
2019-03-22T10:04:00.195Z,4608.00
2019-03-22T10:05:00.414Z,4596.00
2019-03-22T10:06:00.020Z,4584.00
2019-03-22T10:06:59.954Z,4572.00
2019-03-22T10:07:59.884Z,4584.00
2019-03-22T10:09:03.939Z,4576.00
2019-03-22T10:09:59.815Z,4556.00
2019-03-22T10:10:59.707Z,4552.00
2019-03-22T10:11:59.630Z,4540.00
2019-03-22T10:12:59.555Z,4536.00
2019-03-22T10:13:59.470Z,4532.00
2019-03-22T10:14:59.404Z,4524.00
2019-03-22T10:15:59.327Z,4528.00
2019-03-22T10:16:59.260Z,4512.00
2019-03-22T10:17:59.226Z,4496.00
2019-03-22T10:18:59.137Z,4488.00
2019-03-22T10:19:59.080Z,4472.00
2019-03-22T10:20:59.042Z,4476.00
2019-03-22T10:21:58.956Z,4460.00
2019-03-22T10:22:58.861Z,4444.00
2019-03-22T10:23:58.793Z,4432.00
2019-03-22T10:24:58.722Z,4416.00
2019-03-22T10:25:58.665Z,4404.00
2019-03-22T10:26:58.651Z,4384.00
2019-03-22T10:27:58.513Z,4372.00
2019-03-22T10:28:58.441Z,4360.00
2019-03-22T10:29:58.373Z,4340.00
2019-03-22T10:30:58.298Z,4320.00
2019-03-22T10:31:58.227Z,4296.00
2019-03-22T10:32:58.157Z,4280.00
2019-03-22T10:33:58.105Z,4260.00
2019-03-22T10:34:58.072Z,4240.00
2019-03-22T10:35:57.953Z,4216.00
2019-03-22T10:36:57.900Z,4204.00
2019-03-22T10:38:00.791Z,4180.00
2019-03-22T10:38:57.801Z,4168.00
2019-03-22T10:39:57.741Z,4140.00
2019-03-22T10:40:57.712Z,4116.00
2019-03-22T10:41:57.547Z,4092.00
2019-03-22T10:42:57.502Z,4072.00
2019-03-22T10:43:57.404Z,4052.00
2019-03-22T10:44:57.335Z,4032.00
2019-03-22T10:45:57.355Z,4012.00
2019-03-22T10:46:57.247Z,3984.00
2019-03-22T10:47:57.144Z,3964.00
2019-03-22T10:48:57.120Z,3948.00
2019-03-22T10:49:57.005Z,3928.00
2019-03-22T10:50:56.995Z,3908.00
2019-03-22T10:51:58.183Z,3876.00
2019-03-22T10:52:56.839Z,3860.00
2019-03-22T10:53:56.714Z,3844.00
2019-03-22T10:54:56.651Z,3820.00
2019-03-22T10:55:56.582Z,3784.00
2019-03-22T10:56:56.514Z,3768.00
2019-03-22T10:57:56.458Z,3748.00
2019-03-22T10:58:56.389Z,3720.00
2019-03-22T10:59:56.324Z,3696.00
2019-03-22T11:00:56.253Z,3672.00
2019-03-22T11:02:03.139Z,3652.00
2019-03-22T11:02:56.108Z,3624.00
2019-03-22T11:03:56.071Z,3600.00
2019-03-22T11:04:55.967Z,3584.00
2019-03-22T11:05:55.912Z,3568.00
2019-03-22T11:06:55.840Z,3552.00
2019-03-22T11:07:55.761Z,3540.00
2019-03-22T11:08:55.698Z,3520.00
2019-03-22T11:09:55.639Z,3508.00
2019-03-22T11:10:55.573Z,3488.00
2019-03-22T11:11:55.505Z,3480.00
2019-03-22T11:12:55.436Z,3460.00
2019-03-22T11:13:55.353Z,3448.00
2019-03-22T11:14:55.284Z,3440.00
2019-03-22T11:15:55.213Z,3420.00
2019-03-22T11:16:55.150Z,3408.00
2019-03-22T11:17:55.096Z,3404.00
2019-03-22T11:18:55.028Z,3388.00
2019-03-22T11:19:54.955Z,3372.00
2019-03-22T11:21:04.461Z,3352.00
2019-03-22T11:21:54.808Z,3332.00
2019-03-22T11:22:54.739Z,3316.00
2019-03-22T11:23:54.682Z,3308.00
2019-03-22T11:24:54.618Z,3284.00
2019-03-22T11:26:03.851Z,3272.00
2019-03-22T11:26:54.471Z,3264.00
2019-03-22T11:27:54.395Z,3252.00
2019-03-22T11:28:54.390Z,3236.00
2019-03-22T11:29:54.282Z,3224.00
2019-03-22T11:30:54.508Z,3204.00
2019-03-22T11:31:54.149Z,3192.00
2019-03-22T11:32:54.076Z,3172.00
2019-03-22T11:33:54.002Z,3152.00
2019-03-22T11:34:53.937Z,3140.00
2019-03-22T11:35:53.862Z,3124.00
2019-03-22T11:36:53.803Z,3116.00
2019-03-22T11:37:53.719Z,3100.00
2019-03-22T11:38:53.649Z,3080.00
2019-03-22T11:39:53.592Z,3068.00
2019-03-22T11:40:53.525Z,3060.00
2019-03-22T11:41:53.442Z,3048.00
2019-03-22T11:42:53.377Z,3044.00
2019-03-22T11:43:53.309Z,3036.00
2019-03-22T11:44:53.241Z,3020.00
2019-03-22T11:45:53.190Z,3012.00
2019-03-22T11:46:53.151Z,3000.00
2019-03-22T11:47:53.060Z,2992.00
2019-03-22T11:48:52.981Z,2980.00
2019-03-22T11:49:52.899Z,2968.00
2019-03-22T11:50:52.831Z,2956.00
2019-03-22T11:51:52.764Z,2940.00
2019-03-22T11:52:52.701Z,2924.00
2019-03-22T11:53:52.642Z,2916.00
2019-03-22T11:54:52.575Z,2900.00
2019-03-22T11:55:52.495Z,2892.00
2019-03-22T11:56:52.422Z,2880.00
2019-03-22T11:57:52.368Z,2868.00
2019-03-22T11:58:52.309Z,2868.00
2019-03-22T11:59:52.235Z,2852.00
2019-03-22T12:00:52.168Z,2836.00
2019-03-22T12:01:52.105Z,2816.00
2019-03-22T12:02:52.046Z,2812.00
2019-03-22T12:03:51.970Z,2800.00
2019-03-22T12:04:51.918Z,2788.00
2019-03-22T12:05:51.826Z,2772.00
2019-03-22T12:06:51.759Z,2748.00
2019-03-22T12:07:51.704Z,2732.00
2019-03-22T12:08:51.628Z,2724.00
2019-03-22T12:09:51.568Z,2716.00
2019-03-22T12:10:51.504Z,2700.00
2019-03-22T12:11:51.422Z,2684.00
2019-03-22T12:12:51.351Z,2672.00
2019-03-22T12:13:51.290Z,2648.00
2019-03-22T12:14:51.226Z,2640.00
2019-03-22T12:15:51.156Z,2632.00
2019-03-22T12:16:51.085Z,2624.00
2019-03-22T12:17:51.015Z,2604.00
2019-03-22T12:18:50.945Z,2596.00
2019-03-22T12:19:50.878Z,2584.00
2019-03-22T12:20:50.812Z,2564.00
2019-03-22T12:21:50.744Z,2540.00
2019-03-22T12:22:50.679Z,2532.00
2019-03-22T12:23:50.606Z,2516.00
2019-03-22T12:24:50.526Z,2496.00
2019-03-22T12:25:50.467Z,2484.00
2019-03-22T12:26:50.396Z,2472.00
2019-03-22T12:27:50.330Z,2468.00
2019-03-22T12:28:50.266Z,2448.00
2019-03-22T12:29:50.198Z,2436.00
2019-03-22T12:30:50.129Z,2420.00
2019-03-22T12:31:50.057Z,2404.00
2019-03-22T12:32:49.988Z,2384.00
2019-03-22T12:33:49.912Z,2380.00
2019-03-22T12:34:49.860Z,2360.00
2019-03-22T12:35:49.782Z,2344.00
2019-03-22T12:36:49.718Z,2332.00
2019-03-22T12:37:49.648Z,2328.00
2019-03-22T12:38:49.584Z,2308.00